Redbird, Oklahoma
Current Conditions -  °F | °C
As of 9:53 PM on Friday 31 Oct 2014 (Local Time) from KMKO Reporting Station
Clear Clear  
Wind Chill:   Ceiling: Unl
Heat Index:   Visibility: 10mi
Dew Point: -3°   Wind: 6mph
Humidity: 67%   Direction: 360°N
Pressure: 30.43"   Gusts: NA
Location:  35.89°N, 95.59°W
Report Text: KMKO 010253Z AUTO 36005KT 10SM CLR 03/M03 A3043 RMK AO2 SLP306 T00281028 51012
Loading
Personal Weather Stations






























Interactive Weather Map
Tropical Storm Tracking
New forecast layout! Learn more

10-Day Weather Forecast

Advertisements
Track Severe Weather on mobile